createdAt,value
2023-01-09T00:01:59.996Z,99311.00
2023-01-09T00:04:26.743Z,99300.00
2023-01-09T00:06:54.444Z,99306.00
2023-01-09T00:09:22.399Z,99295.00
2023-01-09T00:11:49.426Z,99306.00
2023-01-09T00:14:17.316Z,99300.00
2023-01-09T00:16:44.025Z,99305.00
2023-01-09T00:19:11.173Z,99295.00
2023-01-09T00:21:38.286Z,99292.00
2023-01-09T00:24:05.541Z,99304.00
2023-01-09T00:26:32.650Z,99310.00
2023-01-09T00:28:59.767Z,99316.00
2023-01-09T00:31:26.525Z,99307.00
2023-01-09T00:34:00.432Z,99306.00
2023-01-09T00:36:27.610Z,99296.00
2023-01-09T00:38:54.230Z,99298.00
2023-01-09T00:41:45.786Z,99294.00
2023-01-09T00:44:20.270Z,99282.00
2023-01-09T00:46:55.397Z,99293.00
2023-01-09T00:49:22.598Z,99289.00
2023-01-09T00:51:49.488Z,99284.00
2023-01-09T00:54:18.764Z,99284.00
2023-01-09T00:56:46.116Z,99283.00
2023-01-09T00:59:12.784Z,99272.00
2023-01-09T01:01:39.561Z,99276.00
2023-01-09T01:04:26.244Z,99271.00
2023-01-09T01:07:11.489Z,99262.00
2023-01-09T01:09:38.226Z,99260.00
2023-01-09T01:12:07.273Z,99262.00
2023-01-09T01:14:35.626Z,99266.00
2023-01-09T01:17:02.590Z,99266.00
2023-01-09T01:19:29.217Z,99272.00
2023-01-09T01:21:56.076Z,99271.00
2023-01-09T01:24:22.850Z,99265.00
2023-01-09T01:26:49.672Z,99256.00
2023-01-09T01:29:16.278Z,99256.00
2023-01-09T01:31:42.995Z,99253.00
2023-01-09T01:34:09.686Z,99260.00
2023-01-09T01:36:36.340Z,99252.00
2023-01-09T01:39:03.039Z,99261.00
2023-01-09T01:41:29.952Z,99253.00
2023-01-09T01:44:00.259Z,99245.00
2023-01-09T01:46:27.955Z,99238.00
2023-01-09T01:49:01.106Z,99238.00
2023-01-09T01:51:30.705Z,99236.00
2023-01-09T01:54:01.047Z,99237.00
2023-01-09T01:56:31.805Z,99237.00
2023-01-09T01:59:05.986Z,99215.00
2023-01-09T02:01:33.829Z,99234.00
2023-01-09T02:04:02.324Z,99226.00
2023-01-09T02:06:30.583Z,99220.00
2023-01-09T02:08:57.838Z,99223.00
2023-01-09T02:11:25.011Z,99222.00
2023-01-09T02:13:52.462Z,99226.00
2023-01-09T02:16:34.177Z,99225.00
2023-01-09T02:19:35.639Z,99231.00
2023-01-09T02:22:20.197Z,99232.00
2023-01-09T02:25:05.043Z,99235.00
2023-01-09T02:27:59.709Z,99223.00
2023-01-09T02:30:35.658Z,99216.00
2023-01-09T02:33:28.462Z,99222.00
2023-01-09T02:36:03.924Z,99209.00
2023-01-09T02:39:07.449Z,99207.00
2023-01-09T02:41:50.176Z,99199.00
2023-01-09T02:44:17.712Z,99189.00
2023-01-09T02:46:44.421Z,99197.00
2023-01-09T02:49:12.279Z,99206.00
2023-01-09T02:52:14.666Z,99198.00
2023-01-09T02:55:07.131Z,99164.00
2023-01-09T02:58:12.277Z,99167.00
2023-01-09T03:00:55.455Z,99176.00
2023-01-09T03:03:31.972Z,99159.00
2023-01-09T03:06:15.404Z,99144.00
2023-01-09T03:08:46.214Z,99141.00
2023-01-09T03:11:12.879Z,99156.00
2023-01-09T03:13:50.741Z,99151.00
2023-01-09T03:16:21.618Z,99143.00
2023-01-09T03:18:50.535Z,99141.00
2023-01-09T03:21:17.694Z,99152.00
2023-01-09T03:23:57.234Z,99144.00
2023-01-09T03:26:25.120Z,99150.00
2023-01-09T03:28:52.544Z,99140.00
2023-01-09T03:31:19.211Z,99151.00
2023-01-09T03:33:46.090Z,99161.00
2023-01-09T03:36:13.679Z,99153.00
2023-01-09T03:38:40.735Z,99169.00
2023-01-09T03:41:08.049Z,99172.00
2023-01-09T03:43:35.456Z,99186.00
2023-01-09T03:46:02.901Z,99180.00
2023-01-09T03:48:29.802Z,99187.00
2023-01-09T03:50:56.894Z,99192.00
2023-01-09T03:53:25.344Z,99193.00
2023-01-09T03:55:54.328Z,99199.00
2023-01-09T03:58:22.253Z,99204.00
2023-01-09T04:00:50.667Z,99198.00
2023-01-09T04:03:19.601Z,99206.00
2023-01-09T04:05:47.907Z,99211.00
2023-01-09T04:08:14.746Z,99209.00
2023-01-09T04:10:44.965Z,99231.00
2023-01-09T04:13:11.778Z,99243.00
2023-01-09T04:15:38.529Z,99237.00
2023-01-09T04:18:05.306Z,99246.00
2023-01-09T04:20:32.517Z,99238.00
2023-01-09T04:22:59.793Z,99243.00
2023-01-09T04:25:27.318Z,99249.00
2023-01-09T04:27:54.083Z,99244.00
2023-01-09T04:30:20.994Z,99249.00
2023-01-09T04:32:47.643Z,99253.00
2023-01-09T04:35:14.437Z,99257.00
2023-01-09T04:37:41.085Z,99257.00
2023-01-09T04:40:12.113Z,99258.00
2023-01-09T04:42:39.331Z,99272.00
2023-01-09T04:45:07.563Z,99278.00
2023-01-09T04:47:34.284Z,99273.00
2023-01-09T04:50:01.036Z,99272.00
2023-01-09T04:52:28.356Z,99287.00
2023-01-09T04:54:55.039Z,99292.00
2023-01-09T04:57:22.030Z,99300.00
2023-01-09T04:59:48.635Z,99300.00
2023-01-09T05:02:15.521Z,99316.00
2023-01-09T05:04:42.341Z,99318.00
2023-01-09T05:07:09.142Z,99328.00
2023-01-09T05:09:36.203Z,99330.00
2023-01-09T05:12:03.332Z,99334.00
2023-01-09T05:14:30.079Z,99340.00
2023-01-09T05:16:56.874Z,99346.00
2023-01-09T05:19:23.798Z,99362.00
2023-01-09T05:21:50.576Z,99362.00
2023-01-09T05:24:17.264Z,99368.00
2023-01-09T05:26:43.890Z,99369.00
2023-01-09T05:29:10.892Z,99377.00
2023-01-09T05:31:37.599Z,99386.00
2023-01-09T05:34:04.271Z,99382.00
2023-01-09T05:36:30.976Z,99397.00
2023-01-09T05:39:02.616Z,99402.00
2023-01-09T05:41:29.597Z,99403.00
2023-01-09T05:43:56.280Z,99408.00
2023-01-09T05:46:22.984Z,99403.00
2023-01-09T05:48:49.602Z,99413.00
2023-01-09T05:51:16.366Z,99418.00
2023-01-09T05:53:42.957Z,99413.00
2023-01-09T05:56:11.706Z,99415.00
2023-01-09T05:58:38.686Z,99418.00
2023-01-09T06:01:05.497Z,99426.00
2023-01-09T06:03:32.279Z,99413.00
2023-01-09T06:05:58.957Z,99426.00
2023-01-09T06:08:25.669Z,99431.00
2023-01-09T06:10:52.311Z,99429.00
2023-01-09T06:13:18.900Z,99426.00
2023-01-09T06:15:48.327Z,99440.00
2023-01-09T06:18:15.151Z,99440.00
2023-01-09T06:20:44.001Z,99444.00
2023-01-09T06:23:13.258Z,99442.00
2023-01-09T06:25:40.140Z,99447.00
2023-01-09T06:28:06.818Z,99452.00
2023-01-09T06:30:34.187Z,99459.00
2023-01-09T06:33:00.861Z,99468.00
2023-01-09T06:35:27.544Z,99482.00
2023-01-09T06:37:54.177Z,99491.00
2023-01-09T06:40:21.377Z,99491.00
2023-01-09T06:42:49.734Z,99496.00
2023-01-09T06:45:17.004Z,99505.00
2023-01-09T06:47:43.752Z,99506.00
2023-01-09T06:50:11.144Z,99506.00
2023-01-09T06:52:38.408Z,99516.00
2023-01-09T06:55:05.626Z,99521.00
2023-01-09T06:57:32.241Z,99528.00
2023-01-09T06:59:58.939Z,99538.00
2023-01-09T07:02:25.607Z,99550.00
2023-01-09T07:04:52.283Z,99564.00
2023-01-09T07:07:19.886Z,99564.00
2023-01-09T07:09:46.565Z,99569.00
2023-01-09T07:12:13.154Z,99571.00
2023-01-09T07:14:39.763Z,99568.00
2023-01-09T07:17:06.542Z,99569.00
2023-01-09T07:19:33.221Z,99585.00
2023-01-09T07:21:59.866Z,99580.00
2023-01-09T07:24:26.541Z,99597.00
2023-01-09T07:26:53.167Z,99597.00
2023-01-09T07:29:19.774Z,99607.00
2023-01-09T07:31:47.086Z,99601.00
2023-01-09T07:34:13.823Z,99616.00
2023-01-09T07:36:40.561Z,99615.00
2023-01-09T07:39:07.163Z,99617.00
2023-01-09T07:41:33.799Z,99625.00
2023-01-09T07:44:00.679Z,99632.00
2023-01-09T07:46:28.935Z,99627.00
2023-01-09T07:48:56.189Z,99645.00
2023-01-09T07:51:22.812Z,99649.00
2023-01-09T07:53:49.517Z,99647.00
2023-01-09T07:56:16.136Z,99645.00
2023-01-09T07:58:42.759Z,99654.00
2023-01-09T08:01:09.464Z,99662.00
2023-01-09T08:03:36.138Z,99651.00
2023-01-09T08:06:02.864Z,99656.00
2023-01-09T08:08:29.502Z,99668.00
2023-01-09T08:10:56.587Z,99681.00
2023-01-09T08:13:23.283Z,99683.00
2023-01-09T08:15:49.983Z,99679.00
2023-01-09T08:18:16.595Z,99682.00
2023-01-09T08:20:43.268Z,99692.00
2023-01-09T08:23:09.876Z,99695.00
2023-01-09T08:25:36.520Z,99706.00
2023-01-09T08:28:03.139Z,99702.00
2023-01-09T08:30:29.764Z,99709.00
2023-01-09T08:32:56.611Z,99712.00
2023-01-09T08:35:23.272Z,99723.00
2023-01-09T08:37:49.924Z,99724.00
2023-01-09T08:40:17.109Z,99731.00
2023-01-09T08:43:02.952Z,99738.00
2023-01-09T08:45:49.108Z,99744.00
2023-01-09T08:48:16.976Z,99752.00
2023-01-09T08:50:44.567Z,99756.00
2023-01-09T08:53:11.785Z,99754.00
2023-01-09T08:55:38.787Z,99765.00
2023-01-09T08:58:05.465Z,99762.00
2023-01-09T09:00:32.263Z,99769.00
2023-01-09T09:03:00.873Z,99771.00
2023-01-09T09:05:29.958Z,99775.00
2023-01-09T09:07:57.245Z,99773.00
2023-01-09T09:10:28.700Z,99786.00
2023-01-09T09:12:57.876Z,99788.00
2023-01-09T09:15:26.618Z,99788.00
2023-01-09T09:17:55.981Z,99800.00
2023-01-09T09:20:24.813Z,99808.00
2023-01-09T09:22:51.611Z,99807.00
2023-01-09T09:25:19.396Z,99820.00
2023-01-09T09:27:49.147Z,99822.00
2023-01-09T09:30:18.028Z,99830.00
2023-01-09T09:32:45.689Z,99834.00
2023-01-09T09:35:12.603Z,99834.00
2023-01-09T09:37:39.344Z,99841.00
2023-01-09T09:40:18.104Z,99840.00
2023-01-09T09:43:43.427Z,99857.00
2023-01-09T09:46:28.644Z,99861.00
2023-01-09T09:48:59.651Z,99863.00
2023-01-09T09:51:51.382Z,99876.00
2023-01-09T09:54:30.149Z,99880.00
2023-01-09T09:56:59.240Z,99877.00
2023-01-09T09:59:32.388Z,99886.00
2023-01-09T10:02:29.876Z,99896.00
2023-01-09T10:05:02.030Z,99903.00
2023-01-09T10:07:41.892Z,99907.00
2023-01-09T10:10:20.521Z,99910.00
2023-01-09T10:12:54.701Z,99916.00
2023-01-09T10:15:42.743Z,99914.00
2023-01-09T10:18:17.754Z,99924.00
2023-01-09T10:20:57.264Z,99927.00
2023-01-09T10:23:29.839Z,99928.00
2023-01-09T10:26:03.757Z,99930.00
2023-01-09T10:29:08.978Z,99930.00
2023-01-09T10:32:06.702Z,99934.00
2023-01-09T10:34:51.901Z,99933.00
2023-01-09T10:37:23.252Z,99935.00
2023-01-09T10:40:02.825Z,99938.00
2023-01-09T10:42:33.519Z,99940.00
2023-01-09T10:45:03.206Z,99942.00
2023-01-09T10:47:35.739Z,99946.00
2023-01-09T10:50:17.997Z,99945.00
2023-01-09T10:52:45.737Z,99945.00
2023-01-09T10:55:29.788Z,99950.00
2023-01-09T10:58:17.715Z,99955.00
2023-01-09T11:00:46.533Z,99947.00
2023-01-09T11:03:18.562Z,99953.00
2023-01-09T11:05:59.394Z,99956.00
2023-01-09T11:08:40.329Z,99968.00
2023-01-09T11:11:06.995Z,99968.00
2023-01-09T11:13:36.587Z,99968.00
2023-01-09T11:16:05.819Z,99980.00
2023-01-09T11:18:35.159Z,99974.00
2023-01-09T11:21:15.181Z,99986.00
2023-01-09T11:23:41.816Z,99986.00
2023-01-09T11:26:22.400Z,99991.00
2023-01-09T11:29:14.807Z,99993.00
2023-01-09T11:31:43.726Z,99995.00
2023-01-09T11:34:19.189Z,99992.00
2023-01-09T11:36:46.687Z,99994.00
2023-01-09T11:39:33.876Z,100002.00
2023-01-09T11:42:03.315Z,99995.00
2023-01-09T11:44:31.811Z,99998.00
2023-01-09T11:46:59.534Z,99997.00
2023-01-09T11:49:29.957Z,100005.00
2023-01-09T11:52:12.028Z,100013.00
2023-01-09T11:54:47.579Z,100014.00
2023-01-09T11:57:14.388Z,100019.00
2023-01-09T11:59:41.291Z,100021.00
2023-01-09T12:02:26.922Z,100021.00
2023-01-09T12:05:00.615Z,100032.00
2023-01-09T12:07:58.693Z,100027.00
2023-01-09T12:10:54.945Z,100022.00
2023-01-09T12:13:27.769Z,100042.00
2023-01-09T12:16:12.223Z,100035.00
2023-01-09T12:18:59.649Z,100028.00
2023-01-09T12:21:29.151Z,100033.00
2023-01-09T12:24:01.777Z,100035.00
2023-01-09T12:26:32.648Z,100032.00
2023-01-09T12:29:29.656Z,100033.00
2023-01-09T12:32:14.665Z,100036.00
2023-01-09T12:35:10.431Z,100035.00
2023-01-09T12:37:51.964Z,100038.00
2023-01-09T12:40:29.044Z,100036.00
2023-01-09T12:43:14.128Z,100040.00
2023-01-09T12:46:02.199Z,100046.00
2023-01-09T12:49:01.136Z,100053.00
2023-01-09T12:51:48.058Z,100055.00
2023-01-09T12:54:17.637Z,100054.00
2023-01-09T12:57:00.572Z,100056.00
2023-01-09T12:59:30.789Z,100063.00
2023-01-09T13:02:10.169Z,100065.00
2023-01-09T13:04:44.836Z,100073.00
2023-01-09T13:07:20.540Z,100067.00
2023-01-09T13:10:14.871Z,100063.00
2023-01-09T13:12:44.468Z,100067.00
2023-01-09T13:15:28.427Z,100077.00
2023-01-09T13:18:01.956Z,100079.00
2023-01-09T13:20:42.993Z,100084.00
2023-01-09T13:23:22.330Z,100094.00
2023-01-09T13:25:52.621Z,100099.00
2023-01-09T13:28:24.287Z,100107.00
2023-01-09T13:31:17.094Z,100119.00
2023-01-09T13:33:50.914Z,100115.00
2023-01-09T13:36:30.200Z,100110.00
2023-01-09T13:38:58.542Z,100123.00
2023-01-09T13:41:45.864Z,100127.00
2023-01-09T13:44:18.477Z,100134.00
2023-01-09T13:47:25.167Z,100129.00
2023-01-09T13:49:51.941Z,100136.00
2023-01-09T13:52:24.799Z,100138.00
2023-01-09T13:54:58.346Z,100143.00
2023-01-09T13:57:28.785Z,100161.00
2023-01-09T14:00:19.358Z,100162.00
2023-01-09T14:02:46.873Z,100161.00
2023-01-09T14:05:25.912Z,100169.00
2023-01-09T14:08:03.729Z,100169.00
2023-01-09T14:10:38.653Z,100168.00
2023-01-09T14:13:17.828Z,100182.00
2023-01-09T14:15:47.154Z,100177.00
2023-01-09T14:18:28.554Z,100189.00
2023-01-09T14:23:52.812Z,100184.00
2023-01-09T14:26:26.022Z,100193.00
2023-01-09T14:29:12.733Z,100205.00
2023-01-09T14:31:39.627Z,100223.00
2023-01-09T14:34:32.081Z,100224.00
2023-01-09T14:37:00.981Z,100224.00
2023-01-09T14:39:31.572Z,100239.00
2023-01-09T14:42:06.347Z,100248.00
2023-01-09T14:44:55.442Z,100250.00
2023-01-09T14:47:31.750Z,100273.00
2023-01-09T14:50:16.475Z,100268.00
2023-01-09T14:52:54.120Z,100281.00
2023-01-09T14:55:55.099Z,100288.00
2023-01-09T14:58:35.739Z,100296.00
2023-01-09T15:01:04.641Z,100300.00
2023-01-09T15:04:14.679Z,100309.00
2023-01-09T15:06:43.407Z,100312.00
2023-01-09T15:09:33.238Z,100321.00
2023-01-09T15:12:13.141Z,100332.00
2023-01-09T15:14:43.664Z,100336.00
2023-01-09T15:17:26.206Z,100344.00
2023-01-09T15:19:53.308Z,100348.00
2023-01-09T15:22:28.986Z,100362.00
2023-01-09T15:24:56.092Z,100357.00
2023-01-09T15:27:30.344Z,100367.00
2023-01-09T15:30:14.696Z,100370.00
2023-01-09T15:32:42.312Z,100382.00
2023-01-09T15:35:13.696Z,100389.00
2023-01-09T15:37:40.612Z,100394.00
2023-01-09T15:40:09.087Z,100402.00
2023-01-09T15:42:57.826Z,100409.00
2023-01-09T15:45:32.578Z,100415.00
2023-01-09T15:48:26.061Z,100418.00
2023-01-09T15:51:07.639Z,100426.00
2023-01-09T15:53:34.633Z,100439.00
2023-01-09T15:56:20.318Z,100447.00
2023-01-09T15:58:49.402Z,100446.00
2023-01-09T16:01:31.971Z,100450.00
2023-01-09T16:04:08.335Z,100460.00
2023-01-09T16:06:38.166Z,100466.00
2023-01-09T16:09:14.647Z,100463.00
2023-01-09T16:11:48.227Z,100470.00
2023-01-09T16:14:21.483Z,100477.00
2023-01-09T16:16:49.499Z,100473.00
2023-01-09T16:19:44.253Z,100492.00
2023-01-09T16:22:23.275Z,100493.00
2023-01-09T16:24:53.664Z,100501.00
2023-01-09T16:27:24.733Z,100504.00
2023-01-09T16:29:58.212Z,100504.00
2023-01-09T16:32:29.798Z,100503.00
2023-01-09T16:35:04.613Z,100517.00
2023-01-09T16:37:32.492Z,100534.00
2023-01-09T16:40:04.989Z,100539.00
2023-01-09T16:42:53.963Z,100550.00
2023-01-09T16:45:21.153Z,100545.00
2023-01-09T16:47:47.837Z,100551.00
2023-01-09T16:50:14.507Z,100561.00
2023-01-09T16:52:41.078Z,100570.00
2023-01-09T16:55:09.598Z,100568.00
2023-01-09T16:57:36.377Z,100577.00
2023-01-09T17:00:04.440Z,100587.00
2023-01-09T17:02:31.153Z,100600.00
2023-01-09T17:04:59.262Z,100600.00
2023-01-09T17:07:25.910Z,100596.00
2023-01-09T17:09:53.399Z,100610.00
2023-01-09T17:12:22.154Z,100620.00
2023-01-09T17:14:49.355Z,100623.00
2023-01-09T17:17:17.327Z,100628.00
2023-01-09T17:19:46.660Z,100640.00
2023-01-09T17:22:14.538Z,100635.00
2023-01-09T17:24:59.850Z,100648.00
2023-01-09T17:27:49.762Z,100647.00
2023-01-09T17:30:20.115Z,100651.00
2023-01-09T17:32:48.045Z,100655.00
2023-01-09T17:35:15.971Z,100663.00
2023-01-09T17:37:43.246Z,100666.00
2023-01-09T17:40:21.499Z,100684.00
2023-01-09T17:42:48.283Z,100689.00
2023-01-09T17:45:15.548Z,100685.00
2023-01-09T17:47:42.222Z,100703.00
2023-01-09T17:50:18.674Z,100700.00
2023-01-09T17:52:48.803Z,100714.00
2023-01-09T17:55:15.557Z,100720.00
2023-01-09T17:57:45.603Z,100729.00
2023-01-09T18:00:25.060Z,100731.00
2023-01-09T18:02:52.467Z,100730.00
2023-01-09T18:05:19.486Z,100743.00
2023-01-09T18:07:46.108Z,100750.00
2023-01-09T18:10:18.689Z,100758.00
2023-01-09T18:12:48.457Z,100766.00
2023-01-09T18:15:15.628Z,100781.00
2023-01-09T18:17:42.314Z,100772.00
2023-01-09T18:20:09.870Z,100772.00
2023-01-09T18:22:36.864Z,100782.00
2023-01-09T18:25:04.686Z,100797.00
2023-01-09T18:27:31.779Z,100792.00
2023-01-09T18:30:01.376Z,100813.00
2023-01-09T18:32:29.163Z,100818.00
2023-01-09T18:34:55.793Z,100814.00
2023-01-09T18:37:22.442Z,100828.00
2023-01-09T18:39:49.062Z,100836.00
2023-01-09T18:42:15.742Z,100839.00
2023-01-09T18:44:42.455Z,100848.00
2023-01-09T18:47:09.160Z,100848.00
2023-01-09T18:49:35.850Z,100857.00
2023-01-09T18:52:02.479Z,100852.00
2023-01-09T18:54:29.112Z,100861.00
2023-01-09T18:56:55.778Z,100880.00
2023-01-09T18:59:22.430Z,100874.00
2023-01-09T19:01:49.166Z,100896.00
2023-01-09T19:04:15.882Z,100895.00
2023-01-09T19:06:42.582Z,100899.00
2023-01-09T19:09:10.534Z,100904.00
2023-01-09T19:11:37.215Z,100909.00
2023-01-09T19:14:04.340Z,100917.00
2023-01-09T19:16:31.029Z,100924.00
2023-01-09T19:18:58.742Z,100928.00
2023-01-09T19:21:26.921Z,100937.00
2023-01-09T19:23:54.830Z,100933.00
2023-01-09T19:26:26.957Z,100932.00
2023-01-09T19:28:55.523Z,100930.00
2023-01-09T19:31:24.525Z,100943.00
2023-01-09T19:33:52.540Z,100935.00
2023-01-09T19:36:19.383Z,100937.00
2023-01-09T19:38:46.881Z,100952.00
2023-01-09T19:41:20.802Z,100940.00
2023-01-09T19:43:48.028Z,100956.00
2023-01-09T19:46:18.521Z,100965.00
2023-01-09T19:48:45.481Z,100956.00
2023-01-09T19:51:13.403Z,100963.00
2023-01-09T19:53:40.347Z,100963.00
2023-01-09T19:56:11.873Z,100963.00
2023-01-09T19:58:39.230Z,100970.00
2023-01-09T20:01:17.368Z,100979.00
2023-01-09T20:03:45.661Z,100979.00
2023-01-09T20:06:17.311Z,100989.00
2023-01-09T20:08:45.474Z,100986.00
2023-01-09T20:11:12.210Z,100993.00
2023-01-09T20:13:39.044Z,100988.00
2023-01-09T20:16:06.646Z,100997.00
2023-01-09T20:18:34.590Z,101007.00
2023-01-09T20:21:02.020Z,101017.00
2023-01-09T20:23:29.330Z,101015.00
2023-01-09T20:25:57.914Z,101019.00
2023-01-09T20:28:27.381Z,101018.00
2023-01-09T20:30:54.465Z,101027.00
2023-01-09T20:33:21.776Z,101024.00
2023-01-09T20:35:48.674Z,101032.00
2023-01-09T20:38:15.520Z,101036.00
2023-01-09T20:40:44.928Z,101040.00
2023-01-09T20:43:12.915Z,101041.00
2023-01-09T20:45:40.593Z,101030.00
2023-01-09T20:48:08.175Z,101034.00
2023-01-09T20:50:35.056Z,101035.00
2023-01-09T20:53:01.733Z,101045.00
2023-01-09T20:55:28.328Z,101063.00
2023-01-09T20:57:54.963Z,101049.00
2023-01-09T21:00:21.772Z,101058.00
2023-01-09T21:02:48.403Z,101069.00
2023-01-09T21:05:15.220Z,101067.00
2023-01-09T21:07:41.867Z,101072.00
2023-01-09T21:10:09.387Z,101084.00
2023-01-09T21:12:36.160Z,101090.00
2023-01-09T21:15:05.707Z,101092.00
2023-01-09T21:17:33.801Z,101086.00
2023-01-09T21:20:00.633Z,101095.00
2023-01-09T21:22:27.370Z,101101.00
2023-01-09T21:24:54.383Z,101114.00
2023-01-09T21:27:21.179Z,101116.00
2023-01-09T21:29:47.771Z,101127.00
2023-01-09T21:32:14.408Z,101139.00
2023-01-09T21:34:41.011Z,101134.00
2023-01-09T21:37:07.753Z,101138.00
2023-01-09T21:39:34.500Z,101142.00
2023-01-09T21:42:19.661Z,101141.00
2023-01-09T21:45:04.501Z,101156.00
2023-01-09T21:47:34.154Z,101168.00
2023-01-09T21:50:00.891Z,101173.00
2023-01-09T21:52:27.544Z,101175.00
2023-01-09T21:54:54.298Z,101175.00
2023-01-09T21:57:20.961Z,101178.00
2023-01-09T21:59:47.581Z,101181.00
2023-01-09T22:02:15.964Z,101169.00
2023-01-09T22:04:43.148Z,101176.00
2023-01-09T22:07:10.425Z,101180.00
2023-01-09T22:09:37.658Z,101184.00
2023-01-09T22:12:04.451Z,101193.00
2023-01-09T22:14:31.067Z,101193.00
2023-01-09T22:16:57.747Z,101199.00
2023-01-09T22:19:25.385Z,101210.00
2023-01-09T22:21:53.360Z,101215.00
2023-01-09T22:24:21.666Z,101217.00
2023-01-09T22:26:48.782Z,101220.00
2023-01-09T22:29:16.288Z,101231.00
2023-01-09T22:31:43.161Z,101235.00
2023-01-09T22:34:15.566Z,101235.00
2023-01-09T22:36:42.752Z,101231.00
2023-01-09T22:39:12.320Z,101237.00
2023-01-09T22:41:39.025Z,101237.00
2023-01-09T22:44:05.755Z,101255.00
2023-01-09T22:46:33.215Z,101257.00
2023-01-09T22:49:01.263Z,101258.00
2023-01-09T22:51:28.051Z,101261.00
2023-01-09T22:53:54.683Z,101273.00
2023-01-09T22:56:22.353Z,101270.00
2023-01-09T22:58:53.433Z,101276.00
2023-01-09T23:01:20.903Z,101277.00
2023-01-09T23:03:48.290Z,101279.00
2023-01-09T23:06:17.437Z,101293.00
2023-01-09T23:08:46.071Z,101296.00
2023-01-09T23:11:38.215Z,101303.00
2023-01-09T23:14:04.880Z,101305.00
2023-01-09T23:16:31.573Z,101326.00
2023-01-09T23:18:58.167Z,101320.00
2023-01-09T23:21:24.880Z,101321.00
2023-01-09T23:23:51.498Z,101327.00
2023-01-09T23:26:18.127Z,101344.00
2023-01-09T23:28:44.802Z,101347.00
2023-01-09T23:31:11.487Z,101349.00
2023-01-09T23:33:38.114Z,101346.00
2023-01-09T23:36:05.110Z,101349.00
2023-01-09T23:38:31.737Z,101355.00
2023-01-09T23:40:58.332Z,101357.00
2023-01-09T23:43:25.274Z,101359.00
2023-01-09T23:45:52.440Z,101366.00
2023-01-09T23:48:19.709Z,101366.00
2023-01-09T23:50:51.099Z,101376.00
2023-01-09T23:53:19.443Z,101373.00
2023-01-09T23:55:46.617Z,101384.00
2023-01-09T23:58:13.269Z,101388.00
